Portada
METAR-TAF:

METAR-TAF

Aeroports :

Sevilla, Espanya

latitud: 37-25N, longitud: 005-54W, altitud: 34 m

Observació

L'informe es va fer fa 31 minuts, a les 20:30 UTC
Vent 3 kt del Est/Nord-Est, variant entre Nord/Nord-Est i Est
Temperatura 13°C
Humitat 77%
Pressió 1020 hPa
Visibilitat 10 km o més
sense núvols per sota de 1500 mi sense presència de cumulonimbus.

METAR: LEZL 062030Z 06003KT 020V080 CAVOK 13/09 Q1020 NOSIG

Hora: 22:01 (21:01 UTC)

Pronòstic

L'informe es va fer fa 1 hora i 1 minuts, a les 20:00 UTC
Pronòstic vàlid del 06 a les 21 UTC al 07 a les 21 UTC
Vent 5 kt del Est/Nord-Est
Visibilitat 10 km o més
sense núvols per sota de 1500 mi sense presència de cumulonimbus.

TAF: LEZL 062000Z 0621/0721 06005KT CAVOK TX18/0715Z TN06/0708Z

Observacions i pronòstics meteorològics de més de 4000 aeroports (METAR i TAF).

Les estacions disponibles són els punts grocs i vermells al mapa.

Posi el ratolí al punt desitjat per veure el nom de l'estació.

Feu clic per veure les observacions i els pronòstics meteorològics.

Per canviar el mapa: feu clic els botons verds amb una creu de color negre per apropar; al botó verd amb un guió per allunyar la imatge; o en les fletxes verdes per a mapes adjacents.


METAR-TAF: